sensor_id;sensor_type;location;lat;lon;timestamp;P1;durP1;ratioP1;P2;durP2;ratioP2
2912;SDS011;1466;48.778;9.166;2023-06-10T00:00:11;41.47;;;16.30;;
2912;SDS011;1466;48.778;9.166;2023-06-10T00:02:39;43.73;;;17.37;;
2912;SDS011;1466;48.778;9.166;2023-06-10T00:05:05;25.57;;;14.40;;
2912;SDS011;1466;48.778;9.166;2023-06-10T00:07:32;22.80;;;13.13;;
2912;SDS011;1466;48.778;9.166;2023-06-10T00:09:59;26.00;;;16.23;;
2912;SDS011;1466;48.778;9.166;2023-06-10T00:12:26;24.67;;;14.77;;
2912;SDS011;1466;48.778;9.166;2023-06-10T00:14:54;25.17;;;16.77;;
2912;SDS011;1466;48.778;9.166;2023-06-10T00:17:19;29.80;;;14.50;;
2912;SDS011;1466;48.778;9.166;2023-06-10T00:19:45;38.13;;;15.97;;
2912;SDS011;1466;48.778;9.166;2023-06-10T00:22:11;27.20;;;14.43;;
2912;SDS011;1466;48.778;9.166;2023-06-10T00:24:37;22.63;;;13.73;;
2912;SDS011;1466;48.778;9.166;2023-06-10T00:27:03;28.13;;;13.97;;
2912;SDS011;1466;48.778;9.166;2023-06-10T00:29:29;20.90;;;12.83;;
2912;SDS011;1466;48.778;9.166;2023-06-10T00:31:54;21.53;;;12.63;;
2912;SDS011;1466;48.778;9.166;2023-06-10T00:34:22;26.37;;;13.63;;
2912;SDS011;1466;48.778;9.166;2023-06-10T00:36:48;18.33;;;11.80;;
2912;SDS011;1466;48.778;9.166;2023-06-10T00:39:14;19.77;;;12.80;;
2912;SDS011;1466;48.778;9.166;2023-06-10T00:41:39;20.97;;;13.27;;
2912;SDS011;1466;48.778;9.166;2023-06-10T00:44:05;19.00;;;11.93;;
2912;SDS011;1466;48.778;9.166;2023-06-10T00:46:30;23.50;;;11.43;;
2912;SDS011;1466;48.778;9.166;2023-06-10T00:48:57;17.93;;;10.97;;
2912;SDS011;1466;48.778;9.166;2023-06-10T00:51:23;28.10;;;12.80;;
2912;SDS011;1466;48.778;9.166;2023-06-10T00:53:50;19.80;;;12.80;;
2912;SDS011;1466;48.778;9.166;2023-06-10T00:56:17;23.00;;;12.60;;
2912;SDS011;1466;48.778;9.166;2023-06-10T00:58:42;19.93;;;12.40;;
2912;SDS011;1466;48.778;9.166;2023-06-10T01:01:08;14.80;;;11.57;;
2912;SDS011;1466;48.778;9.166;2023-06-10T01:03:36;17.20;;;10.13;;
2912;SDS011;1466;48.778;9.166;2023-06-10T01:11:45;33.10;;;12.90;;
2912;SDS011;1466;48.778;9.166;2023-06-10T01:14:23;43.10;;;14.60;;
2912;SDS011;1466;48.778;9.166;2023-06-10T01:16:49;35.07;;;14.80;;
2912;SDS011;1466;48.778;9.166;2023-06-10T01:19:15;22.27;;;13.80;;
2912;SDS011;1466;48.778;9.166;2023-06-10T01:21:42;28.63;;;13.70;;
2912;SDS011;1466;48.778;9.166;2023-06-10T01:24:13;23.20;;;12.40;;
2912;SDS011;1466;48.778;9.166;2023-06-10T01:26:39;28.13;;;13.00;;
2912;SDS011;1466;48.778;9.166;2023-06-10T01:29:09;16.57;;;11.27;;
2912;SDS011;1466;48.778;9.166;2023-06-10T01:31:55;24.07;;;12.13;;
2912;SDS011;1466;48.778;9.166;2023-06-10T01:34:28;18.93;;;12.30;;
2912;SDS011;1466;48.778;9.166;2023-06-10T01:36:57;26.40;;;12.73;;
2912;SDS011;1466;48.778;9.166;2023-06-10T01:39:24;35.53;;;14.53;;
2912;SDS011;1466;48.778;9.166;2023-06-10T01:41:50;24.60;;;13.13;;
2912;SDS011;1466;48.778;9.166;2023-06-10T01:44:23;26.90;;;13.60;;
2912;SDS011;1466;48.778;9.166;2023-06-10T01:46:49;29.63;;;14.37;;
2912;SDS011;1466;48.778;9.166;2023-06-10T01:49:14;27.33;;;14.30;;
2912;SDS011;1466;48.778;9.166;2023-06-10T01:51:40;26.30;;;13.00;;
2912;SDS011;1466;48.778;9.166;2023-06-10T01:54:06;23.20;;;12.90;;
2912;SDS011;1466;48.778;9.166;2023-06-10T01:56:32;27.33;;;13.20;;
2912;SDS011;1466;48.778;9.166;2023-06-10T01:58:58;18.80;;;12.37;;
2912;SDS011;1466;48.778;9.166;2023-06-10T02:01:27;21.80;;;12.90;;
2912;SDS011;1466;48.778;9.166;2023-06-10T02:03:53;19.27;;;11.77;;
2912;SDS011;1466;48.778;9.166;2023-06-10T02:06:19;36.80;;;13.93;;
2912;SDS011;1466;48.778;9.166;2023-06-10T02:08:45;30.23;;;13.93;;
2912;SDS011;1466;48.778;9.166;2023-06-10T02:11:10;18.63;;;11.37;;
2912;SDS011;1466;48.778;9.166;2023-06-10T02:13:37;25.23;;;12.60;;
2912;SDS011;1466;48.778;9.166;2023-06-10T02:16:03;27.23;;;13.53;;
2912;SDS011;1466;48.778;9.166;2023-06-10T02:18:30;20.73;;;12.60;;
2912;SDS011;1466;48.778;9.166;2023-06-10T02:20:56;22.77;;;12.40;;
2912;SDS011;1466;48.778;9.166;2023-06-10T02:23:22;30.97;;;13.50;;
2912;SDS011;1466;48.778;9.166;2023-06-10T02:25:47;23.87;;;12.43;;
2912;SDS011;1466;48.778;9.166;2023-06-10T02:28:13;22.90;;;11.60;;
2912;SDS011;1466;48.778;9.166;2023-06-10T02:30:40;21.03;;;11.90;;
2912;SDS011;1466;48.778;9.166;2023-06-10T02:33:06;25.17;;;12.27;;
2912;SDS011;1466;48.778;9.166;2023-06-10T02:35:35;22.80;;;12.10;;
2912;SDS011;1466;48.778;9.166;2023-06-10T02:38:01;31.93;;;13.70;;
2912;SDS011;1466;48.778;9.166;2023-06-10T02:40:27;22.90;;;12.30;;
2912;SDS011;1466;48.778;9.166;2023-06-10T02:42:53;17.90;;;11.10;;
2912;SDS011;1466;48.778;9.166;2023-06-10T02:45:19;21.40;;;11.83;;
2912;SDS011;1466;48.778;9.166;2023-06-10T02:47:45;20.23;;;12.20;;
2912;SDS011;1466;48.778;9.166;2023-06-10T02:50:11;20.47;;;11.50;;
2912;SDS011;1466;48.778;9.166;2023-06-10T02:52:36;15.83;;;10.63;;
2912;SDS011;1466;48.778;9.166;2023-06-10T02:55:02;20.20;;;11.67;;
2912;SDS011;1466;48.778;9.166;2023-06-10T02:57:28;16.57;;;10.90;;
2912;SDS011;1466;48.778;9.166;2023-06-10T02:59:54;15.43;;;10.80;;
2912;SDS011;1466;48.778;9.166;2023-06-10T03:02:19;21.97;;;12.07;;
2912;SDS011;1466;48.778;9.166;2023-06-10T03:04:45;21.50;;;12.97;;
2912;SDS011;1466;48.778;9.166;2023-06-10T03:07:11;23.53;;;12.00;;
2912;SDS011;1466;48.778;9.166;2023-06-10T03:09:37;21.60;;;11.93;;
2912;SDS011;1466;48.778;9.166;2023-06-10T03:12:03;21.03;;;11.90;;
2912;SDS011;1466;48.778;9.166;2023-06-10T03:14:30;19.63;;;12.07;;
2912;SDS011;1466;48.778;9.166;2023-06-10T03:16:55;17.27;;;11.10;;
2912;SDS011;1466;48.778;9.166;2023-06-10T03:19:21;26.00;;;12.47;;
2912;SDS011;1466;48.778;9.166;2023-06-10T03:21:49;20.03;;;11.87;;
2912;SDS011;1466;48.778;9.166;2023-06-10T03:24:19;27.33;;;12.93;;
2912;SDS011;1466;48.778;9.166;2023-06-10T03:26:45;44.03;;;15.27;;
2912;SDS011;1466;48.778;9.166;2023-06-10T03:29:11;20.73;;;10.90;;
2912;SDS011;1466;48.778;9.166;2023-06-10T03:31:36;24.87;;;11.97;;
2912;SDS011;1466;48.778;9.166;2023-06-10T03:34:03;24.40;;;12.33;;
2912;SDS011;1466;48.778;9.166;2023-06-10T03:36:29;28.17;;;12.83;;
2912;SDS011;1466;48.778;9.166;2023-06-10T03:38:55;17.87;;;10.97;;
2912;SDS011;1466;48.778;9.166;2023-06-10T03:41:22;21.97;;;11.10;;
2912;SDS011;1466;48.778;9.166;2023-06-10T03:43:47;28.63;;;12.07;;
2912;SDS011;1466;48.778;9.166;2023-06-10T03:46:13;24.10;;;11.07;;
2912;SDS011;1466;48.778;9.166;2023-06-10T03:48:39;20.23;;;10.80;;
2912;SDS011;1466;48.778;9.166;2023-06-10T03:51:06;22.33;;;11.70;;
2912;SDS011;1466;48.778;9.166;2023-06-10T03:53:32;20.53;;;10.53;;
2912;SDS011;1466;48.778;9.166;2023-06-10T03:55:57;21.50;;;11.07;;
2912;SDS011;1466;48.778;9.166;2023-06-10T03:58:23;17.93;;;10.13;;
2912;SDS011;1466;48.778;9.166;2023-06-10T04:00:49;19.90;;;10.37;;
2912;SDS011;1466;48.778;9.166;2023-06-10T04:03:14;21.10;;;10.87;;
2912;SDS011;1466;48.778;9.166;2023-06-10T04:05:40;23.50;;;11.53;;
2912;SDS011;1466;48.778;9.166;2023-06-10T04:08:06;21.10;;;10.63;;
2912;SDS011;1466;48.778;9.166;2023-06-10T04:10:32;23.63;;;11.27;;
2912;SDS011;1466;48.778;9.166;2023-06-10T04:12:58;18.00;;;10.40;;
2912;SDS011;1466;48.778;9.166;2023-06-10T04:15:24;14.90;;;10.03;;
2912;SDS011;1466;48.778;9.166;2023-06-10T04:17:50;33.03;;;13.83;;
2912;SDS011;1466;48.778;9.166;2023-06-10T04:20:17;36.10;;;13.57;;
2912;SDS011;1466;48.778;9.166;2023-06-10T04:22:43;23.20;;;12.17;;
2912;SDS011;1466;48.778;9.166;2023-06-10T04:25:09;29.13;;;11.80;;
2912;SDS011;1466;48.778;9.166;2023-06-10T04:27:35;14.83;;;10.40;;
2912;SDS011;1466;48.778;9.166;2023-06-10T04:30:01;18.50;;;10.73;;
2912;SDS011;1466;48.778;9.166;2023-06-10T04:32:28;17.60;;;10.50;;
2912;SDS011;1466;48.778;9.166;2023-06-10T04:34:54;26.07;;;11.30;;
2912;SDS011;1466;48.778;9.166;2023-06-10T04:37:20;23.13;;;10.90;;
2912;SDS011;1466;48.778;9.166;2023-06-10T04:39:45;19.43;;;10.70;;
2912;SDS011;1466;48.778;9.166;2023-06-10T04:42:11;17.47;;;10.60;;
2912;SDS011;1466;48.778;9.166;2023-06-10T04:44:37;26.93;;;10.80;;
2912;SDS011;1466;48.778;9.166;2023-06-10T04:47:03;23.60;;;11.10;;
2912;SDS011;1466;48.778;9.166;2023-06-10T04:49:29;22.43;;;11.13;;
2912;SDS011;1466;48.778;9.166;2023-06-10T04:51:56;30.53;;;12.70;;
2912;SDS011;1466;48.778;9.166;2023-06-10T04:54:21;17.10;;;10.50;;
2912;SDS011;1466;48.778;9.166;2023-06-10T04:56:47;17.60;;;9.47;;
2912;SDS011;1466;48.778;9.166;2023-06-10T04:59:13;24.90;;;12.23;;
2912;SDS011;1466;48.778;9.166;2023-06-10T05:01:39;22.97;;;11.50;;
2912;SDS011;1466;48.778;9.166;2023-06-10T05:04:05;24.23;;;11.50;;
2912;SDS011;1466;48.778;9.166;2023-06-10T05:06:30;22.73;;;10.53;;
2912;SDS011;1466;48.778;9.166;2023-06-10T05:08:56;20.50;;;10.73;;
2912;SDS011;1466;48.778;9.166;2023-06-10T05:11:22;18.87;;;11.17;;
2912;SDS011;1466;48.778;9.166;2023-06-10T05:13:47;23.57;;;10.03;;
2912;SDS011;1466;48.778;9.166;2023-06-10T05:16:14;24.77;;;10.60;;
2912;SDS011;1466;48.778;9.166;2023-06-10T05:18:40;20.60;;;10.10;;
2912;SDS011;1466;48.778;9.166;2023-06-10T05:21:06;23.37;;;10.03;;
2912;SDS011;1466;48.778;9.166;2023-06-10T05:23:32;27.07;;;11.70;;
2912;SDS011;1466;48.778;9.166;2023-06-10T05:25:58;19.13;;;10.43;;
2912;SDS011;1466;48.778;9.166;2023-06-10T05:28:24;14.77;;;9.53;;
2912;SDS011;1466;48.778;9.166;2023-06-10T05:30:50;23.23;;;11.00;;
2912;SDS011;1466;48.778;9.166;2023-06-10T05:33:16;15.37;;;9.00;;
2912;SDS011;1466;48.778;9.166;2023-06-10T05:35:42;24.43;;;10.80;;
2912;SDS011;1466;48.778;9.166;2023-06-10T05:38:07;26.27;;;10.47;;
2912;SDS011;1466;48.778;9.166;2023-06-10T05:40:33;19.33;;;9.00;;
2912;SDS011;1466;48.778;9.166;2023-06-10T05:42:59;20.10;;;9.20;;
2912;SDS011;1466;48.778;9.166;2023-06-10T05:45:24;17.00;;;9.00;;
2912;SDS011;1466;48.778;9.166;2023-06-10T05:47:50;40.20;;;12.67;;
2912;SDS011;1466;48.778;9.166;2023-06-10T05:50:16;16.03;;;9.17;;
2912;SDS011;1466;48.778;9.166;2023-06-10T05:52:42;19.40;;;9.90;;
2912;SDS011;1466;48.778;9.166;2023-06-10T05:55:08;23.00;;;9.40;;
2912;SDS011;1466;48.778;9.166;2023-06-10T05:57:34;13.63;;;8.70;;
2912;SDS011;1466;48.778;9.166;2023-06-10T05:59:59;14.53;;;7.90;;
2912;SDS011;1466;48.778;9.166;2023-06-10T06:02:25;15.57;;;8.60;;
2912;SDS011;1466;48.778;9.166;2023-06-10T06:04:50;36.57;;;12.23;;
2912;SDS011;1466;48.778;9.166;2023-06-10T06:07:16;30.93;;;10.93;;
2912;SDS011;1466;48.778;9.166;2023-06-10T06:09:42;21.13;;;9.17;;
2912;SDS011;1466;48.778;9.166;2023-06-10T06:12:07;15.70;;;8.87;;
2912;SDS011;1466;48.778;9.166;2023-06-10T06:14:36;24.87;;;9.47;;
2912;SDS011;1466;48.778;9.166;2023-06-10T06:17:04;24.07;;;9.90;;
2912;SDS011;1466;48.778;9.166;2023-06-10T06:19:30;18.43;;;9.33;;
2912;SDS011;1466;48.778;9.166;2023-06-10T06:21:56;18.40;;;9.27;;
2912;SDS011;1466;48.778;9.166;2023-06-10T06:24:21;23.13;;;10.60;;
2912;SDS011;1466;48.778;9.166;2023-06-10T06:26:47;16.40;;;9.67;;
2912;SDS011;1466;48.778;9.166;2023-06-10T06:29:13;15.00;;;9.43;;
2912;SDS011;1466;48.778;9.166;2023-06-10T06:31:38;33.53;;;11.83;;
2912;SDS011;1466;48.778;9.166;2023-06-10T06:34:07;21.33;;;10.50;;
2912;SDS011;1466;48.778;9.166;2023-06-10T06:36:32;28.83;;;10.80;;
2912;SDS011;1466;48.778;9.166;2023-06-10T06:38:58;21.60;;;9.80;;
2912;SDS011;1466;48.778;9.166;2023-06-10T06:41:25;13.97;;;8.80;;
2912;SDS011;1466;48.778;9.166;2023-06-10T06:43:51;16.00;;;9.30;;
2912;SDS011;1466;48.778;9.166;2023-06-10T06:46:18;17.30;;;9.20;;
2912;SDS011;1466;48.778;9.166;2023-06-10T06:48:44;18.20;;;10.17;;
2912;SDS011;1466;48.778;9.166;2023-06-10T06:51:09;19.57;;;9.13;;
2912;SDS011;1466;48.778;9.166;2023-06-10T06:53:35;16.60;;;8.87;;
2912;SDS011;1466;48.778;9.166;2023-06-10T06:56:01;14.60;;;8.70;;
2912;SDS011;1466;48.778;9.166;2023-06-10T06:58:27;16.30;;;9.27;;
2912;SDS011;1466;48.778;9.166;2023-06-10T07:00:53;19.07;;;9.47;;
2912;SDS011;1466;48.778;9.166;2023-06-10T07:03:19;11.17;;;8.50;;
2912;SDS011;1466;48.778;9.166;2023-06-10T07:05:44;16.40;;;9.33;;
2912;SDS011;1466;48.778;9.166;2023-06-10T07:08:10;17.10;;;9.23;;
2912;SDS011;1466;48.778;9.166;2023-06-10T07:10:37;16.27;;;9.10;;
2912;SDS011;1466;48.778;9.166;2023-06-10T07:13:02;17.30;;;9.37;;
2912;SDS011;1466;48.778;9.166;2023-06-10T07:15:28;17.23;;;9.57;;
2912;SDS011;1466;48.778;9.166;2023-06-10T07:17:54;15.13;;;9.67;;
2912;SDS011;1466;48.778;9.166;2023-06-10T07:20:20;18.37;;;9.40;;
2912;SDS011;1466;48.778;9.166;2023-06-10T07:22:46;21.40;;;10.10;;
2912;SDS011;1466;48.778;9.166;2023-06-10T07:25:11;25.73;;;11.00;;
2912;SDS011;1466;48.778;9.166;2023-06-10T07:27:37;18.90;;;9.80;;
2912;SDS011;1466;48.778;9.166;2023-06-10T07:30:03;16.73;;;8.77;;
2912;SDS011;1466;48.778;9.166;2023-06-10T07:32:31;12.97;;;8.80;;
2912;SDS011;1466;48.778;9.166;2023-06-10T07:34:57;15.80;;;8.80;;
2912;SDS011;1466;48.778;9.166;2023-06-10T07:37:23;16.63;;;8.73;;
2912;SDS011;1466;48.778;9.166;2023-06-10T07:39:48;14.43;;;9.13;;
2912;SDS011;1466;48.778;9.166;2023-06-10T07:42:14;9.80;;;8.10;;
2912;SDS011;1466;48.778;9.166;2023-06-10T07:44:40;17.40;;;9.23;;
2912;SDS011;1466;48.778;9.166;2023-06-10T07:47:05;20.23;;;9.53;;
2912;SDS011;1466;48.778;9.166;2023-06-10T07:49:31;13.63;;;9.30;;
2912;SDS011;1466;48.778;9.166;2023-06-10T07:51:57;26.57;;;12.17;;
2912;SDS011;1466;48.778;9.166;2023-06-10T07:54:22;16.97;;;10.37;;
2912;SDS011;1466;48.778;9.166;2023-06-10T07:56:48;16.93;;;10.10;;
2912;SDS011;1466;48.778;9.166;2023-06-10T07:59:14;19.20;;;9.50;;
2912;SDS011;1466;48.778;9.166;2023-06-10T08:01:39;16.13;;;9.17;;
2912;SDS011;1466;48.778;9.166;2023-06-10T08:04:05;13.67;;;9.27;;
2912;SDS011;1466;48.778;9.166;2023-06-10T08:06:31;14.00;;;9.10;;
2912;SDS011;1466;48.778;9.166;2023-06-10T08:08:57;32.83;;;13.03;;
2912;SDS011;1466;48.778;9.166;2023-06-10T08:11:23;13.13;;;9.10;;
2912;SDS011;1466;48.778;9.166;2023-06-10T08:13:48;18.53;;;9.93;;
2912;SDS011;1466;48.778;9.166;2023-06-10T08:16:14;15.57;;;9.20;;
2912;SDS011;1466;48.778;9.166;2023-06-10T08:18:40;16.33;;;8.73;;
2912;SDS011;1466;48.778;9.166;2023-06-10T08:21:06;14.33;;;9.40;;
2912;SDS011;1466;48.778;9.166;2023-06-10T08:23:31;15.23;;;9.53;;
2912;SDS011;1466;48.778;9.166;2023-06-10T08:25:57;15.93;;;9.77;;
2912;SDS011;1466;48.778;9.166;2023-06-10T08:28:23;19.87;;;10.43;;
2912;SDS011;1466;48.778;9.166;2023-06-10T08:30:48;14.70;;;9.07;;
2912;SDS011;1466;48.778;9.166;2023-06-10T08:33:14;14.40;;;8.73;;
2912;SDS011;1466;48.778;9.166;2023-06-10T08:35:40;12.10;;;8.10;;
2912;SDS011;1466;48.778;9.166;2023-06-10T08:38:05;28.47;;;11.03;;
2912;SDS011;1466;48.778;9.166;2023-06-10T08:40:32;15.80;;;9.70;;
2912;SDS011;1466;48.778;9.166;2023-06-10T08:45:29;22.17;;;10.63;;
2912;SDS011;1466;48.778;9.166;2023-06-10T08:48:00;17.07;;;9.10;;
2912;SDS011;1466;48.778;9.166;2023-06-10T08:50:37;19.07;;;9.37;;
2912;SDS011;1466;48.778;9.166;2023-06-10T08:53:06;16.77;;;8.50;;
2912;SDS011;1466;48.778;9.166;2023-06-10T08:55:33;14.90;;;8.83;;
2912;SDS011;1466;48.778;9.166;2023-06-10T08:58:03;32.93;;;12.40;;
2912;SDS011;1466;48.778;9.166;2023-06-10T09:00:29;8.80;;;7.90;;
2912;SDS011;1466;48.778;9.166;2023-06-10T09:02:56;17.43;;;9.07;;
2912;SDS011;1466;48.778;9.166;2023-06-10T09:05:23;12.07;;;8.33;;
2912;SDS011;1466;48.778;9.166;2023-06-10T09:07:48;13.90;;;8.63;;
2912;SDS011;1466;48.778;9.166;2023-06-10T09:10:16;26.90;;;10.90;;
2912;SDS011;1466;48.778;9.166;2023-06-10T09:12:42;16.93;;;8.60;;
2912;SDS011;1466;48.778;9.166;2023-06-10T09:15:07;13.00;;;7.73;;
2912;SDS011;1466;48.778;9.166;2023-06-10T09:17:34;16.33;;;8.40;;
2912;SDS011;1466;48.778;9.166;2023-06-10T09:20:02;12.77;;;8.30;;
2912;SDS011;1466;48.778;9.166;2023-06-10T09:22:28;18.53;;;9.07;;
2912;SDS011;1466;48.778;9.166;2023-06-10T09:25:06;20.60;;;9.33;;
2912;SDS011;1466;48.778;9.166;2023-06-10T09:27:43;21.00;;;9.47;;
2912;SDS011;1466;48.778;9.166;2023-06-10T09:30:31;15.70;;;8.77;;
2912;SDS011;1466;48.778;9.166;2023-06-10T09:32:58;19.73;;;10.17;;
2912;SDS011;1466;48.778;9.166;2023-06-10T09:35:29;12.87;;;9.00;;
2912;SDS011;1466;48.778;9.166;2023-06-10T09:37:56;28.37;;;11.70;;
2912;SDS011;1466;48.778;9.166;2023-06-10T09:40:23;17.77;;;10.70;;
2912;SDS011;1466;48.778;9.166;2023-06-10T09:42:59;17.07;;;9.10;;
2912;SDS011;1466;48.778;9.166;2023-06-10T09:45:31;13.83;;;8.83;;
2912;SDS011;1466;48.778;9.166;2023-06-10T09:47:57;20.97;;;11.17;;
2912;SDS011;1466;48.778;9.166;2023-06-10T09:50:23;19.53;;;10.00;;
2912;SDS011;1466;48.778;9.166;2023-06-10T09:52:49;11.60;;;9.10;;
2912;SDS011;1466;48.778;9.166;2023-06-10T09:55:16;9.33;;;8.23;;
2912;SDS011;1466;48.778;9.166;2023-06-10T09:57:42;13.90;;;9.27;;
2912;SDS011;1466;48.778;9.166;2023-06-10T10:00:09;10.93;;;8.90;;
2912;SDS011;1466;48.778;9.166;2023-06-10T10:02:46;18.87;;;10.23;;
2912;SDS011;1466;48.778;9.166;2023-06-10T10:05:17;20.73;;;10.37;;
2912;SDS011;1466;48.778;9.166;2023-06-10T10:07:44;12.33;;;8.67;;
2912;SDS011;1466;48.778;9.166;2023-06-10T10:10:10;14.83;;;8.73;;
2912;SDS011;1466;48.778;9.166;2023-06-10T10:12:38;20.13;;;9.60;;
2912;SDS011;1466;48.778;9.166;2023-06-10T10:15:08;17.73;;;10.10;;
2912;SDS011;1466;48.778;9.166;2023-06-10T10:17:44;17.20;;;9.73;;
2912;SDS011;1466;48.778;9.166;2023-06-10T10:20:14;31.70;;;11.40;;
2912;SDS011;1466;48.778;9.166;2023-06-10T10:22:45;14.77;;;9.70;;
2912;SDS011;1466;48.778;9.166;2023-06-10T10:25:23;14.23;;;9.87;;
2912;SDS011;1466;48.778;9.166;2023-06-10T10:27:59;28.70;;;12.30;;
2912;SDS011;1466;48.778;9.166;2023-06-10T10:30:28;15.57;;;8.90;;
2912;SDS011;1466;48.778;9.166;2023-06-10T10:35:43;16.37;;;9.00;;
2912;SDS011;1466;48.778;9.166;2023-06-10T10:38:10;14.00;;;8.33;;
2912;SDS011;1466;48.778;9.166;2023-06-10T10:40:36;22.80;;;10.40;;
2912;SDS011;1466;48.778;9.166;2023-06-10T10:43:03;18.67;;;10.10;;
2912;SDS011;1466;48.778;9.166;2023-06-10T10:45:33;21.73;;;10.30;;
2912;SDS011;1466;48.778;9.166;2023-06-10T10:47:59;21.33;;;10.10;;
2912;SDS011;1466;48.778;9.166;2023-06-10T10:50:31;22.27;;;10.40;;
2912;SDS011;1466;48.778;9.166;2023-06-10T10:52:59;12.20;;;8.50;;
2912;SDS011;1466;48.778;9.166;2023-06-10T10:55:27;12.87;;;8.97;;
2912;SDS011;1466;48.778;9.166;2023-06-10T10:57:54;30.27;;;12.93;;
2912;SDS011;1466;48.778;9.166;2023-06-10T11:00:33;15.30;;;9.27;;
2912;SDS011;1466;48.778;9.166;2023-06-10T11:02:59;21.03;;;10.20;;
2912;SDS011;1466;48.778;9.166;2023-06-10T11:08:04;22.27;;;11.10;;
2912;SDS011;1466;48.778;9.166;2023-06-10T11:10:35;33.73;;;12.30;;
2912;SDS011;1466;48.778;9.166;2023-06-10T11:13:14;24.97;;;11.50;;
2912;SDS011;1466;48.778;9.166;2023-06-10T11:15:43;15.80;;;9.00;;
2912;SDS011;1466;48.778;9.166;2023-06-10T11:31:19;22.80;;;10.87;;
2912;SDS011;1466;48.778;9.166;2023-06-10T11:33:53;20.87;;;11.10;;
2912;SDS011;1466;48.778;9.166;2023-06-10T11:36:20;18.90;;;10.27;;
2912;SDS011;1466;48.778;9.166;2023-06-10T11:38:46;27.13;;;12.53;;
2912;SDS011;1466;48.778;9.166;2023-06-10T11:41:13;25.93;;;12.37;;
2912;SDS011;1466;48.778;9.166;2023-06-10T11:43:43;19.03;;;10.57;;
2912;SDS011;1466;48.778;9.166;2023-06-10T11:46:12;21.03;;;11.10;;
2912;SDS011;1466;48.778;9.166;2023-06-10T11:48:39;10.43;;;8.70;;
2912;SDS011;1466;48.778;9.166;2023-06-10T11:51:07;18.60;;;10.83;;
2912;SDS011;1466;48.778;9.166;2023-06-10T11:53:33;22.77;;;10.93;;
2912;SDS011;1466;48.778;9.166;2023-06-10T11:55:59;14.33;;;10.20;;
2912;SDS011;1466;48.778;9.166;2023-06-10T11:58:25;13.67;;;9.37;;
2912;SDS011;1466;48.778;9.166;2023-06-10T12:00:54;20.57;;;10.77;;
2912;SDS011;1466;48.778;9.166;2023-06-10T12:03:23;13.90;;;9.33;;
2912;SDS011;1466;48.778;9.166;2023-06-10T12:06:00;40.07;;;13.73;;
2912;SDS011;1466;48.778;9.166;2023-06-10T12:08:27;20.07;;;10.70;;
2912;SDS011;1466;48.778;9.166;2023-06-10T12:10:54;21.63;;;11.80;;
2912;SDS011;1466;48.778;9.166;2023-06-10T12:13:20;15.23;;;10.00;;
2912;SDS011;1466;48.778;9.166;2023-06-10T12:15:46;24.87;;;11.33;;
2912;SDS011;1466;48.778;9.166;2023-06-10T12:18:18;12.07;;;9.50;;
2912;SDS011;1466;48.778;9.166;2023-06-10T12:20:44;18.70;;;10.27;;
2912;SDS011;1466;48.778;9.166;2023-06-10T12:23:10;16.30;;;8.97;;
2912;SDS011;1466;48.778;9.166;2023-06-10T12:25:36;24.60;;;11.27;;
2912;SDS011;1466;48.778;9.166;2023-06-10T12:28:03;18.30;;;10.70;;
2912;SDS011;1466;48.778;9.166;2023-06-10T12:30:32;27.43;;;12.30;;
2912;SDS011;1466;48.778;9.166;2023-06-10T12:32:57;11.63;;;9.10;;
2912;SDS011;1466;48.778;9.166;2023-06-10T12:35:24;18.10;;;9.27;;
2912;SDS011;1466;48.778;9.166;2023-06-10T12:37:58;19.60;;;9.80;;
2912;SDS011;1466;48.778;9.166;2023-06-10T12:40:37;18.73;;;9.27;;
2912;SDS011;1466;48.778;9.166;2023-06-10T12:43:05;19.87;;;9.90;;
2912;SDS011;1466;48.778;9.166;2023-06-10T12:50:38;16.83;;;9.03;;
2912;SDS011;1466;48.778;9.166;2023-06-10T12:53:05;21.23;;;10.63;;
2912;SDS011;1466;48.778;9.166;2023-06-10T12:55:32;19.73;;;10.30;;
2912;SDS011;1466;48.778;9.166;2023-06-10T12:57:58;18.90;;;9.77;;
2912;SDS011;1466;48.778;9.166;2023-06-10T13:00:25;42.77;;;14.33;;
2912;SDS011;1466;48.778;9.166;2023-06-10T13:02:51;15.77;;;9.70;;
2912;SDS011;1466;48.778;9.166;2023-06-10T13:05:18;18.13;;;9.77;;
2912;SDS011;1466;48.778;9.166;2023-06-10T13:07:45;14.10;;;9.27;;
2912;SDS011;1466;48.778;9.166;2023-06-10T13:10:12;19.40;;;9.53;;
2912;SDS011;1466;48.778;9.166;2023-06-10T13:12:38;19.57;;;9.90;;
2912;SDS011;1466;48.778;9.166;2023-06-10T13:15:05;19.30;;;9.50;;
2912;SDS011;1466;48.778;9.166;2023-06-10T13:17:31;26.13;;;10.30;;
2912;SDS011;1466;48.778;9.166;2023-06-10T13:19:56;15.33;;;9.10;;
2912;SDS011;1466;48.778;9.166;2023-06-10T13:22:22;17.77;;;9.20;;
2912;SDS011;1466;48.778;9.166;2023-06-10T13:24:49;10.30;;;8.03;;
2912;SDS011;1466;48.778;9.166;2023-06-10T13:27:14;14.27;;;8.17;;
2912;SDS011;1466;48.778;9.166;2023-06-10T13:29:40;20.63;;;9.67;;
2912;SDS011;1466;48.778;9.166;2023-06-10T13:32:06;14.47;;;9.10;;
2912;SDS011;1466;48.778;9.166;2023-06-10T13:34:32;11.53;;;8.20;;
2912;SDS011;1466;48.778;9.166;2023-06-10T13:36:57;26.33;;;11.23;;
2912;SDS011;1466;48.778;9.166;2023-06-10T13:39:24;18.50;;;9.67;;
2912;SDS011;1466;48.778;9.166;2023-06-10T13:41:49;14.90;;;9.07;;
2912;SDS011;1466;48.778;9.166;2023-06-10T13:44:17;18.80;;;10.23;;
2912;SDS011;1466;48.778;9.166;2023-06-10T13:46:42;18.60;;;9.67;;
2912;SDS011;1466;48.778;9.166;2023-06-10T13:49:08;19.43;;;9.80;;
2912;SDS011;1466;48.778;9.166;2023-06-10T13:51:34;21.83;;;10.33;;
2912;SDS011;1466;48.778;9.166;2023-06-10T13:54:03;22.30;;;9.67;;
2912;SDS011;1466;48.778;9.166;2023-06-10T13:56:28;17.23;;;9.57;;
2912;SDS011;1466;48.778;9.166;2023-06-10T13:58:54;12.87;;;8.30;;
2912;SDS011;1466;48.778;9.166;2023-06-10T14:01:19;14.73;;;8.87;;
2912;SDS011;1466;48.778;9.166;2023-06-10T14:03:45;12.07;;;8.50;;
2912;SDS011;1466;48.778;9.166;2023-06-10T14:06:10;24.03;;;10.53;;
2912;SDS011;1466;48.778;9.166;2023-06-10T14:08:40;19.70;;;9.73;;
2912;SDS011;1466;48.778;9.166;2023-06-10T14:11:06;19.07;;;9.73;;
2912;SDS011;1466;48.778;9.166;2023-06-10T14:13:31;16.20;;;8.83;;
2912;SDS011;1466;48.778;9.166;2023-06-10T14:15:58;9.70;;;7.93;;
2912;SDS011;1466;48.778;9.166;2023-06-10T14:18:27;17.53;;;9.90;;
2912;SDS011;1466;48.778;9.166;2023-06-10T14:20:53;17.47;;;9.20;;
2912;SDS011;1466;48.778;9.166;2023-06-10T14:23:19;9.23;;;7.70;;
2912;SDS011;1466;48.778;9.166;2023-06-10T14:25:44;10.00;;;7.40;;
2912;SDS011;1466;48.778;9.166;2023-06-10T14:28:10;12.50;;;9.23;;
2912;SDS011;1466;48.778;9.166;2023-06-10T14:30:35;11.10;;;7.80;;
2912;SDS011;1466;48.778;9.166;2023-06-10T14:33:01;12.30;;;8.43;;
2912;SDS011;1466;48.778;9.166;2023-06-10T14:35:27;13.10;;;9.10;;
2912;SDS011;1466;48.778;9.166;2023-06-10T14:37:53;22.33;;;10.67;;
2912;SDS011;1466;48.778;9.166;2023-06-10T14:40:18;14.43;;;9.67;;
2912;SDS011;1466;48.778;9.166;2023-06-10T14:42:46;11.57;;;8.43;;
2912;SDS011;1466;48.778;9.166;2023-06-10T14:45:12;12.23;;;8.70;;
2912;SDS011;1466;48.778;9.166;2023-06-10T14:47:37;13.23;;;9.03;;
2912;SDS011;1466;48.778;9.166;2023-06-10T14:50:03;9.23;;;8.30;;
2912;SDS011;1466;48.778;9.166;2023-06-10T14:52:29;17.00;;;10.00;;
2912;SDS011;1466;48.778;9.166;2023-06-10T14:54:54;10.77;;;7.60;;
2912;SDS011;1466;48.778;9.166;2023-06-10T14:57:20;10.20;;;8.73;;
2912;SDS011;1466;48.778;9.166;2023-06-10T14:59:45;14.87;;;9.10;;
2912;SDS011;1466;48.778;9.166;2023-06-10T15:02:11;19.80;;;10.33;;
2912;SDS011;1466;48.778;9.166;2023-06-10T15:04:37;10.60;;;7.60;;
2912;SDS011;1466;48.778;9.166;2023-06-10T15:07:02;11.40;;;8.60;;
2912;SDS011;1466;48.778;9.166;2023-06-10T15:09:28;13.27;;;8.60;;
2912;SDS011;1466;48.778;9.166;2023-06-10T15:11:54;17.77;;;10.30;;
2912;SDS011;1466;48.778;9.166;2023-06-10T15:14:20;21.80;;;10.47;;
2912;SDS011;1466;48.778;9.166;2023-06-10T15:16:45;19.80;;;10.10;;
2912;SDS011;1466;48.778;9.166;2023-06-10T15:19:14;18.10;;;10.70;;
2912;SDS011;1466;48.778;9.166;2023-06-10T15:21:39;15.10;;;8.93;;